Suvak — VO3069 — position and weather

sailwx.info

Track history (hours):
 
Tides and Currents Weather Stations Pressure Air Temp Water Temp Dewpoint Dewpoint Depression Visibility Wind Speed Wind Dir Waves Ship Positions

Suvak

Last reported at 2018-Jun-18 01:29 UTC. Time now 2018-Jun-19 04:42 UTC.
Position N 63°39' W 055°31'.

Length 30 m.

Type: Fishing. MMSI: 316004040.

Date/timePositionNaut miles runAvg speedWind from/ knotsBaromVisibWave heightAir tempDewpointWater temp
2018-Jun-18 01:29N 63°39' W 055°31'7 9.1
2018-Jun-18 00:42N 63°42' W 055°16'2 9.2
2018-Jun-18 00:29N 63°43' W 055°12'5 9.6
2018-Jun-18 00:01N 63°45' W 055°03'5 9.6
2018-Jun-17 23:30N 63°46' W 054°52'7 9.8
2018-Jun-17 22:50N 63°48' W 054°38'3 9.7
2018-Jun-17 22:29N 63°49' W 054°31'5 9.9
2018-Jun-17 22:00N 63°50' W 054°20'610.2
2018-Jun-17 21:23N 63°52' W 054°06'410.2
2018-Jun-17 21:00N 63°53' W 053°58'5 9.9
2018-Jun-17 20:30N 63°54' W 053°47'5 9.9
2018-Jun-17 20:00N 63°55' W 053°36'510.0
2018-Jun-17 19:30N 63°56' W 053°25'510.2
2018-Jun-17 19:01N 63°57' W 053°14'510.1
2018-Jun-17 18:30N 63°58' W 053°02'510.3
2018-Jun-17 18:00N 63°59' W 052°51'510.4
2018-Jun-17 17:31N 64°01' W 052°39'510.1
2018-Jun-17 17:00N 64°02' W 052°28'510.0
2018-Jun-17 16:30N 64°03' W 052°17'510.5
2018-Jun-17 16:00N 64°04' W 052°06'510.3
2018-Jun-17 15:29N 64°07' W 051°55'4 8.8
2018-Jun-17 15:00N 64°09' W 051°47'2 3.6
2018-Jun-17 14:30N 64°10' W 051°43'0 0.0
2018-Jun-17 13:59N 64°10' W 051°43'0 0.0
2018-Jun-17 13:30N 64°10' W 051°43'0 0.0
2018-Jun-17 12:59N 64°10' W 051°43'0 0.0
2018-Jun-17 12:29N 64°10' W 051°43'0 0.0
2018-Jun-17 12:00N 64°10' W 051°43'0 0.0
2018-Jun-17 11:30N 64°10' W 051°43'0 0.0
2018-Jun-17 10:59N 64°10' W 051°43'0 0.0
2018-Jun-17 10:30N 64°10' W 051°43'0 0.0
2018-Jun-17 10:00N 64°10' W 051°43'0 0.0
2018-Jun-17 09:30N 64°10' W 051°43'0 0.0
2018-Jun-17 09:00N 64°10' W 051°43'0 0.0
2018-Jun-17 08:30N 64°10' W 051°43'0 0.0
2018-Jun-17 08:00N 64°10' W 051°43'0 0.0
2018-Jun-17 07:29N 64°10' W 051°43'0 0.0
2018-Jun-17 07:00N 64°10' W 051°43'0 0.0
2018-Jun-17 06:30N 64°10' W 051°43'0 0.0
2018-Jun-17 05:59N 64°10' W 051°43'0 0.0
2018-Jun-17 05:30N 64°10' W 051°43'0 0.0
2018-Jun-17 04:59N 64°10' W 051°43'0 0.0
2018-Jun-17 04:30N 64°10' W 051°43'0 0.0
2018-Jun-17 04:00N 64°10' W 051°43'0 0.0
2018-Jun-17 03:29N 64°10' W 051°43'0 0.0
2018-Jun-17 03:00N 64°10' W 051°43'0 0.0
2018-Jun-17 02:30N 64°10' W 051°43'0 0.0
2018-Jun-17 02:00N 64°10' W 051°43'0 0.0
2018-Jun-17 01:30N 64°10' W 051°43'0 0.0
2018-Jun-17 00:59N 64°10' W 051°43'0 0.0
2018-Jun-17 00:30N 64°10' W 051°43'0 0.0
2018-Jun-17 00:00N 64°10' W 051°43'0 0.0
2018-Jun-16 23:30N 64°10' W 051°43'0 0.0
2018-Jun-16 23:00N 64°10' W 051°43'0 0.0
2018-Jun-16 22:30N 64°10' W 051°43'0 0.0
2018-Jun-16 22:00N 64°10' W 051°43'0 0.0
2018-Jun-16 21:30N 64°10' W 051°43'0 0.0
2018-Jun-16 20:59N 64°10' W 051°43'0 0.0
2018-Jun-16 20:30N 64°10' W 051°43'0 0.0
2018-Jun-16 19:59N 64°10' W 051°43'0 0.0
2018-Jun-16 19:29N 64°10' W 051°43'0 0.0
2018-Jun-16 19:00N 64°10' W 051°43'0 0.0
2018-Jun-16 18:30N 64°10' W 051°43'0 0.0
2018-Jun-16 17:59N 64°10' W 051°43'0 0.0
2018-Jun-16 17:29N 64°10' W 051°43'0 0.0
2018-Jun-16 17:00N 64°10' W 051°43'0 0.0
2018-Jun-16 16:29N 64°10' W 051°43'0 0.0
2018-Jun-16 16:00N 64°10' W 051°43'0 0.0
2018-Jun-16 15:30N 64°10' W 051°43'0 0.0
2018-Jun-16 15:00N 64°10' W 051°43'0 0.0
2018-Jun-16 14:30N 64°10' W 051°43'0 0.0
2018-Jun-16 14:00N 64°10' W 051°43'0 0.0
2018-Jun-16 13:30N 64°10' W 051°43'0 0.0
2018-Jun-16 13:00N 64°10' W 051°43'0 0.0
2018-Jun-16 12:30N 64°10' W 051°43'0 0.0
2018-Jun-16 12:00N 64°10' W 051°43'0 0.0
2018-Jun-16 11:30N 64°10' W 051°43'0 0.0
2018-Jun-16 10:59N 64°10' W 051°43'0 0.0
2018-Jun-16 10:30N 64°10' W 051°43'0 0.0
2018-Jun-16 10:00N 64°10' W 051°43'0 0.0
2018-Jun-16 09:30N 64°10' W 051°43'0 0.0
2018-Jun-16 08:59N 64°10' W 051°43'0 0.0
2018-Jun-16 08:29N 64°10' W 051°43'0 0.0
2018-Jun-16 07:59N 64°10' W 051°43'2 3.6
2018-Jun-16 07:31N 64°09' W 051°46'4 7.8
2018-Jun-16 07:00N 64°07' W 051°54'4 8.3
2018-Jun-16 06:30N 64°05' W 052°02'4 7.4
2018-Jun-16 06:00N 64°03' W 052°10'3 6.5
2018-Jun-16 05:30N 64°03' W 052°17'4 7.2
2018-Jun-16 05:00N 64°02' W 052°25'4 7.3
2018-Jun-16 04:28N 64°01' W 052°34'3 6.8
2018-Jun-16 04:00N 64°01' W 052°41'3 6.3
2018-Jun-16 03:30N 63°60' W 052°48'3 6.0
2018-Jun-16 03:00N 63°59' W 052°55'3 6.0
2018-Jun-16 02:30N 63°59' W 053°02'3 6.0
2018-Jun-16 01:59N 63°58' W 053°08'3 6.3
2018-Jun-16 01:29N 63°57' W 053°15'3 6.5
2018-Jun-16 01:00N 63°56' W 053°22'3 6.7
2018-Jun-16 00:30N 63°56' W 053°30'4 7.3
2018-Jun-16 00:00N 63°56' W 053°38'4 7.3
2018-Jun-15 23:30N 63°55' W 053°46'4 7.3
2018-Jun-15 23:00N 63°54' W 053°54'4 6.8
2018-Jun-15 22:24N 63°53' W 054°03'3 6.6
2018-Jun-15 22:00N 63°52' W 054°09'3 6.3
2018-Jun-15 21:30N 63°52' W 054°16'  
Track history (hours):
 
Tides and Currents Weather Stations Pressure Air Temp Water Temp Dewpoint Dewpoint Depression Visibility Wind Speed Wind Dir Waves Ship Positions

Suvak

Last reported at 2018-Jun-18 01:29 UTC. Time now 2018-Jun-19 04:42 UTC.
Position N 63°39' W 055°31'.

Length 30 m.

Type: Fishing. MMSI: 316004040.

Date/timePositionNaut miles runAvg speedWind from/ knotsBaromVisibWave heightAir tempDewpointWater temp
2018-Jun-18 01:29N 63°39' W 055°31'7 9.1
2018-Jun-18 00:42N 63°42' W 055°16'2 9.2
2018-Jun-18 00:29N 63°43' W 055°12'5 9.6
2018-Jun-18 00:01N 63°45' W 055°03'5 9.6
2018-Jun-17 23:30N 63°46' W 054°52'7 9.8
2018-Jun-17 22:50N 63°48' W 054°38'3 9.7
2018-Jun-17 22:29N 63°49' W 054°31'5 9.9
2018-Jun-17 22:00N 63°50' W 054°20'610.2
2018-Jun-17 21:23N 63°52' W 054°06'410.2
2018-Jun-17 21:00N 63°53' W 053°58'5 9.9
2018-Jun-17 20:30N 63°54' W 053°47'5 9.9
2018-Jun-17 20:00N 63°55' W 053°36'510.0
2018-Jun-17 19:30N 63°56' W 053°25'510.2
2018-Jun-17 19:01N 63°57' W 053°14'510.1
2018-Jun-17 18:30N 63°58' W 053°02'510.3
2018-Jun-17 18:00N 63°59' W 052°51'510.4
2018-Jun-17 17:31N 64°01' W 052°39'510.1
2018-Jun-17 17:00N 64°02' W 052°28'510.0
2018-Jun-17 16:30N 64°03' W 052°17'510.5
2018-Jun-17 16:00N 64°04' W 052°06'510.3
2018-Jun-17 15:29N 64°07' W 051°55'4 8.8
2018-Jun-17 15:00N 64°09' W 051°47'2 3.6
2018-Jun-17 14:30N 64°10' W 051°43'0 0.0
2018-Jun-17 13:59N 64°10' W 051°43'0 0.0
2018-Jun-17 13:30N 64°10' W 051°43'0 0.0
2018-Jun-17 12:59N 64°10' W 051°43'0 0.0
2018-Jun-17 12:29N 64°10' W 051°43'0 0.0
2018-Jun-17 12:00N 64°10' W 051°43'0 0.0
2018-Jun-17 11:30N 64°10' W 051°43'0 0.0
2018-Jun-17 10:59N 64°10' W 051°43'0 0.0
2018-Jun-17 10:30N 64°10' W 051°43'0 0.0
2018-Jun-17 10:00N 64°10' W 051°43'0 0.0
2018-Jun-17 09:30N 64°10' W 051°43'0 0.0
2018-Jun-17 09:00N 64°10' W 051°43'0 0.0
2018-Jun-17 08:30N 64°10' W 051°43'0 0.0
2018-Jun-17 08:00N 64°10' W 051°43'0 0.0
2018-Jun-17 07:29N 64°10' W 051°43'0 0.0
2018-Jun-17 07:00N 64°10' W 051°43'0 0.0
2018-Jun-17 06:30N 64°10' W 051°43'0 0.0
2018-Jun-17 05:59N 64°10' W 051°43'0 0.0
2018-Jun-17 05:30N 64°10' W 051°43'0 0.0
2018-Jun-17 04:59N 64°10' W 051°43'0 0.0
2018-Jun-17 04:30N 64°10' W 051°43'0 0.0
2018-Jun-17 04:00N 64°10' W 051°43'0 0.0
2018-Jun-17 03:29N 64°10' W 051°43'0 0.0
2018-Jun-17 03:00N 64°10' W 051°43'0 0.0
2018-Jun-17 02:30N 64°10' W 051°43'0 0.0
2018-Jun-17 02:00N 64°10' W 051°43'0 0.0
2018-Jun-17 01:30N 64°10' W 051°43'0 0.0
2018-Jun-17 00:59N 64°10' W 051°43'0 0.0
2018-Jun-17 00:30N 64°10' W 051°43'0 0.0
2018-Jun-17 00:00N 64°10' W 051°43'0 0.0
2018-Jun-16 23:30N 64°10' W 051°43'0 0.0
2018-Jun-16 23:00N 64°10' W 051°43'0 0.0
2018-Jun-16 22:30N 64°10' W 051°43'0 0.0
2018-Jun-16 22:00N 64°10' W 051°43'0 0.0
2018-Jun-16 21:30N 64°10' W 051°43'0 0.0
2018-Jun-16 20:59N 64°10' W 051°43'0 0.0
2018-Jun-16 20:30N 64°10' W 051°43'0 0.0
2018-Jun-16 19:59N 64°10' W 051°43'0 0.0
2018-Jun-16 19:29N 64°10' W 051°43'0 0.0
2018-Jun-16 19:00N 64°10' W 051°43'0 0.0
2018-Jun-16 18:30N 64°10' W 051°43'0 0.0
2018-Jun-16 17:59N 64°10' W 051°43'0 0.0
2018-Jun-16 17:29N 64°10' W 051°43'0 0.0
2018-Jun-16 17:00N 64°10' W 051°43'0 0.0
2018-Jun-16 16:29N 64°10' W 051°43'0 0.0
2018-Jun-16 16:00N 64°10' W 051°43'0 0.0
2018-Jun-16 15:30N 64°10' W 051°43'0 0.0
2018-Jun-16 15:00N 64°10' W 051°43'0 0.0
2018-Jun-16 14:30N 64°10' W 051°43'0 0.0
2018-Jun-16 14:00N 64°10' W 051°43'0 0.0
2018-Jun-16 13:30N 64°10' W 051°43'0 0.0
2018-Jun-16 13:00N 64°10' W 051°43'0 0.0
2018-Jun-16 12:30N 64°10' W 051°43'0 0.0
2018-Jun-16 12:00N 64°10' W 051°43'0 0.0
2018-Jun-16 11:30N 64°10' W 051°43'0 0.0
2018-Jun-16 10:59N 64°10' W 051°43'0 0.0
2018-Jun-16 10:30N 64°10' W 051°43'0 0.0
2018-Jun-16 10:00N 64°10' W 051°43'0 0.0
2018-Jun-16 09:30N 64°10' W 051°43'0 0.0
2018-Jun-16 08:59N 64°10' W 051°43'0 0.0
2018-Jun-16 08:29N 64°10' W 051°43'0 0.0
2018-Jun-16 07:59N 64°10' W 051°43'2 3.6
2018-Jun-16 07:31N 64°09' W 051°46'4 7.8
2018-Jun-16 07:00N 64°07' W 051°54'4 8.3
2018-Jun-16 06:30N 64°05' W 052°02'4 7.4
2018-Jun-16 06:00N 64°03' W 052°10'3 6.5
2018-Jun-16 05:30N 64°03' W 052°17'4 7.2
2018-Jun-16 05:00N 64°02' W 052°25'4 7.3
2018-Jun-16 04:28N 64°01' W 052°34'3 6.8
2018-Jun-16 04:00N 64°01' W 052°41'3 6.3
2018-Jun-16 03:30N 63°60' W 052°48'3 6.0
2018-Jun-16 03:00N 63°59' W 052°55'3 6.0
2018-Jun-16 02:30N 63°59' W 053°02'3 6.0
2018-Jun-16 01:59N 63°58' W 053°08'3 6.3
2018-Jun-16 01:29N 63°57' W 053°15'3 6.5
2018-Jun-16 01:00N 63°56' W 053°22'3 6.7
2018-Jun-16 00:30N 63°56' W 053°30'4 7.3
2018-Jun-16 00:00N 63°56' W 053°38'4 7.3
2018-Jun-15 23:30N 63°55' W 053°46'4 7.3
2018-Jun-15 23:00N 63°54' W 053°54'4 6.8
2018-Jun-15 22:24N 63°53' W 054°03'3 6.6
2018-Jun-15 22:00N 63°52' W 054°09'3 6.3
2018-Jun-15 21:30N 63°52' W 054°16'  

Dump ship's entire track history